Lonnoy — CNA5177 — position and weather

sailwx.info

Track history (hours):
 
Tides and Currents Weather Stations Pressure Air Temp Water Temp Dewpoint Dewpoint Depression Visibility Wind Speed Wind Dir Waves Ship Positions

Lonnoy

Last reported at 2018-Feb-14 22:51 UTC. Time now 2018-Jun-25 17:48 UTC.
Position N 27°48' W 015°20'.
Warning: this ship's position is months out of date.

Length 65 m; draft 6.2 m.

Type: Fishing. MMSI: 242589300.

Date/timePositionNaut miles runAvg speedWind from/ knotsBaromVisibWave heightAir tempDewpointWater temp
2018-Feb-14 22:51N 27°48' W 015°20'513.4
2018-Feb-14 22:30N 27°52' W 015°19'612.9
2018-Feb-14 22:00N 27°59' W 015°20'612.7
2018-Feb-14 21:30N 28°05' W 015°22'4 8.8
2018-Feb-14 21:00N 28°08' W 015°25'0 0.9
2018-Feb-14 20:28N 28°09' W 015°25'0 0.0
2018-Feb-14 19:58N 28°09' W 015°25'0 0.0
2018-Feb-14 19:30N 28°09' W 015°25'0 0.0
2018-Feb-14 18:59N 28°09' W 015°25'0 0.0
2018-Feb-14 18:30N 28°09' W 015°25'0 0.0
2018-Feb-14 18:00N 28°09' W 015°25'0 0.0
2018-Feb-14 17:30N 28°09' W 015°25'1 2.4
2018-Feb-14 16:59N 28°07' W 015°25'1 3.1
2018-Feb-14 16:30N 28°07' W 015°23'0 0.7
2018-Feb-14 16:00N 28°08' W 015°23'0 0.9
2018-Feb-14 15:30N 28°07' W 015°22'3 5.7
2018-Feb-14 15:00N 28°08' W 015°25'0 0.1
2018-Feb-14 14:30N 28°09' W 015°25'0 0.0
2018-Feb-14 13:59N 28°09' W 015°25'0 0.0
2018-Feb-14 13:30N 28°09' W 015°25'0 0.0
2018-Feb-14 13:00N 28°09' W 015°25'0 0.0
2018-Feb-14 12:30N 28°09' W 015°25'0 0.0
2018-Feb-14 12:00N 28°09' W 015°25'0 0.0
2018-Feb-14 11:31N 28°09' W 015°25'0 0.0
2018-Feb-14 11:01N 28°09' W 015°25'0 0.0
2018-Feb-14 10:30N 28°09' W 015°25'0 0.0
2018-Feb-14 09:59N 28°09' W 015°25'0 0.0
2018-Feb-14 09:30N 28°09' W 015°25'0 0.0
2018-Feb-14 09:01N 28°09' W 015°25'0 0.0
2018-Feb-14 08:31N 28°09' W 015°25'0 0.0
2018-Feb-14 08:01N 28°09' W 015°25'0 0.0
2018-Feb-14 07:31N 28°09' W 015°25'0 0.0
2018-Feb-14 07:00N 28°09' W 015°25'0 0.0
2018-Feb-14 06:31N 28°09' W 015°25'0 0.0
2018-Feb-14 06:01N 28°09' W 015°25'0 0.0
2018-Feb-14 05:30N 28°09' W 015°25'0 0.0
2018-Feb-14 05:01N 28°09' W 015°25'0 0.0
2018-Feb-14 04:30N 28°09' W 015°25'0 0.0
2018-Feb-14 04:00N 28°09' W 015°25'0 0.0
2018-Feb-14 03:29N 28°09' W 015°25'0 0.0
2018-Feb-14 02:58N 28°09' W 015°25'0 0.0
2018-Feb-14 02:30N 28°09' W 015°25'0 0.0
2018-Feb-14 02:00N 28°09' W 015°25'0 0.0
2018-Feb-14 01:28N 28°09' W 015°25'0 0.0
2018-Feb-14 01:00N 28°09' W 015°25'0 0.0
2018-Feb-14 00:30N 28°09' W 015°25'0 0.0
2018-Feb-14 00:00N 28°09' W 015°25'0 0.0
2018-Feb-13 23:30N 28°09' W 015°25'0 0.0
2018-Feb-13 23:00N 28°09' W 015°25'0 0.0
2018-Feb-13 22:30N 28°09' W 015°25'0 0.0
2018-Feb-13 21:59N 28°09' W 015°25'0 0.0
2018-Feb-13 21:30N 28°09' W 015°25'0 0.0
2018-Feb-13 21:00N 28°09' W 015°25'0 0.0
2018-Feb-13 20:29N 28°09' W 015°25'0 0.0
2018-Feb-13 20:00N 28°09' W 015°25'0 0.0
2018-Feb-13 19:31N 28°09' W 015°25'0 0.0
2018-Feb-13 19:01N 28°09' W 015°25'0 0.0
2018-Feb-13 18:27N 28°09' W 015°25'0 0.0
2018-Feb-13 18:01N 28°09' W 015°25'0 0.0
2018-Feb-13 17:30N 28°09' W 015°25'0 0.0
2018-Feb-13 17:00N 28°09' W 015°25'0 0.0
2018-Feb-13 16:29N 28°09' W 015°25'2 3.4
2018-Feb-13 16:01N 28°07' W 015°24'510.0
2018-Feb-13 15:30N 28°10' W 015°20'1 2.9
2018-Feb-13 15:01N 28°11' W 015°18'4 7.3
2018-Feb-13 14:30N 28°07' W 015°17'2 3.1
2018-Feb-13 14:00N 28°05' W 015°17'611.4
2018-Feb-13 13:30N 28°11' W 015°16'3 5.6
2018-Feb-13 13:00N 28°09' W 015°15'1 2.6
2018-Feb-13 12:30N 28°07' W 015°15'4 7.9
2018-Feb-13 12:00N 28°07' W 015°20'3 6.2
2018-Feb-13 11:30N 28°07' W 015°23'3 5.3
2018-Feb-13 11:00N 28°08' W 015°25'0 0.1
2018-Feb-13 10:29N 28°09' W 015°25'0 0.0
2018-Feb-13 09:59N 28°09' W 015°25'0 0.0
2018-Feb-13 09:25N 28°09' W 015°25'0 0.0
2018-Feb-13 08:59N 28°09' W 015°25'0 0.0
2018-Feb-13 08:29N 28°09' W 015°25'0 0.0
2018-Feb-13 07:59N 28°09' W 015°25'0 0.0
2018-Feb-13 07:29N 28°09' W 015°25'0 0.0
2018-Feb-13 06:59N 28°09' W 015°25'0 0.0
2018-Feb-13 06:29N 28°09' W 015°25'0 0.0
2018-Feb-13 05:59N 28°09' W 015°25'0 0.0
2018-Feb-13 05:29N 28°09' W 015°25'0 0.0
2018-Feb-13 04:59N 28°09' W 015°25'0 0.0
2018-Feb-13 04:29N 28°09' W 015°25'0 0.0
2018-Feb-13 03:59N 28°09' W 015°25'0 0.0
2018-Feb-13 03:29N 28°09' W 015°25'0 0.0
2018-Feb-13 02:59N 28°09' W 015°25'0 0.0
2018-Feb-13 02:29N 28°09' W 015°25'0 0.0
2018-Feb-13 01:59N 28°09' W 015°25'0 0.0
2018-Feb-13 01:29N 28°09' W 015°25'0 0.0
2018-Feb-13 00:59N 28°09' W 015°25'0 0.0
2018-Feb-13 00:29N 28°09' W 015°25'0 0.0
2018-Feb-12 23:59N 28°09' W 015°25'0 0.0
2018-Feb-12 23:29N 28°09' W 015°25'0 0.0
2018-Feb-12 22:59N 28°09' W 015°25'0 0.0
2018-Feb-12 22:29N 28°09' W 015°25'0 0.0
2018-Feb-12 21:59N 28°09' W 015°25'0 0.0
2018-Feb-12 21:29N 28°09' W 015°25'0 0.0
2018-Feb-12 20:59N 28°09' W 015°25'0 0.0
2018-Feb-12 20:29N 28°09' W 015°25'0 0.0
2018-Feb-12 19:59N 28°09' W 015°25'0 0.0
2018-Feb-12 19:29N 28°09' W 015°25'0 0.0
2018-Feb-12 18:59N 28°09' W 015°25'0 0.0
2018-Feb-12 18:29N 28°09' W 015°25'0 0.0
2018-Feb-12 17:59N 28°09' W 015°25'0 0.0
2018-Feb-12 17:30N 28°09' W 015°25'0 0.0
2018-Feb-12 17:00N 28°09' W 015°25'0 0.0
2018-Feb-12 16:30N 28°09' W 015°25'0 0.0
2018-Feb-12 16:00N 28°09' W 015°25'0 0.0
2018-Feb-12 15:14N 28°09' W 015°25'0 0.0
2018-Feb-12 15:00N 28°09' W 015°25'0 0.0
2018-Feb-12 14:30N 28°09' W 015°25'0 0.0
2018-Feb-12 13:56N 28°09' W 015°25'0 0.0
2018-Feb-12 13:30N 28°09' W 015°25'0 0.0
2018-Feb-12 12:56N 28°09' W 015°25'0 0.0
2018-Feb-12 12:26N 28°09' W 015°25'0 0.0
2018-Feb-12 11:54N 28°09' W 015°25'0 0.0
2018-Feb-12 11:26N 28°09' W 015°25'0 0.0
2018-Feb-12 11:00N 28°09' W 015°25'0 0.0
2018-Feb-12 10:30N 28°09' W 015°25'0 0.0
2018-Feb-12 10:00N 28°09' W 015°25'0 0.0
2018-Feb-12 09:30N 28°09' W 015°25'0 0.0
2018-Feb-12 09:00N 28°09' W 015°25'0 0.0
2018-Feb-12 07:56N 28°09' W 015°25'0 0.0
2018-Feb-12 07:30N 28°09' W 015°25'0 0.0
2018-Feb-12 07:00N 28°09' W 015°25'0 0.0
2018-Feb-12 06:15N 28°09' W 015°25'0 0.0
2018-Feb-12 06:00N 28°09' W 015°25'0 0.0
2018-Feb-12 05:30N 28°09' W 015°25'0 0.0
2018-Feb-12 04:51N 28°09' W 015°25'0 0.0
2018-Feb-12 04:30N 28°09' W 015°25'0 0.0
2018-Feb-12 03:54N 28°09' W 015°25'0 0.0
2018-Feb-12 03:21N 28°09' W 015°25'0 0.0
2018-Feb-12 03:00N 28°09' W 015°25'0 0.0
2018-Feb-12 02:21N 28°09' W 015°25'0 0.0
2018-Feb-12 01:36N 28°09' W 015°25'0 0.0
2018-Feb-12 01:24N 28°09' W 015°25'0 0.0
2018-Feb-12 00:54N 28°09' W 015°25'0 0.0
2018-Feb-12 00:24N 28°09' W 015°25'0 0.0
2018-Feb-11 23:54N 28°09' W 015°25'0 0.0
2018-Feb-11 23:21N 28°09' W 015°25'0 0.0
2018-Feb-11 22:57N 28°09' W 015°25'0 0.0
2018-Feb-11 22:27N 28°09' W 015°25'0 0.0
2018-Feb-11 22:00N 28°09' W 015°25'0 0.0
2018-Feb-11 21:28N 28°09' W 015°25'0 0.0
2018-Feb-11 20:58N 28°09' W 015°25'0 0.0
2018-Feb-11 20:30N 28°09' W 015°25'0 0.0
2018-Feb-11 20:00N 28°09' W 015°25'0 0.0
2018-Feb-11 19:30N 28°09' W 015°25'0 0.0
2018-Feb-11 19:00N 28°09' W 015°25'0 0.0
2018-Feb-11 18:18N 28°09' W 015°25'0 0.0
2018-Feb-11 18:00N 28°09' W 015°25'0 0.0
2018-Feb-11 17:30N 28°09' W 015°25'0 0.0
2018-Feb-11 17:00N 28°09' W 015°25'0 0.0
2018-Feb-11 16:30N 28°09' W 015°25'0 0.0
2018-Feb-11 16:00N 28°09' W 015°25'0 0.0
2018-Feb-11 15:30N 28°09' W 015°25'0 0.0
2018-Feb-11 15:00N 28°09' W 015°25'0 0.0
2018-Feb-11 14:30N 28°09' W 015°25'0 0.0
2018-Feb-11 14:00N 28°09' W 015°25'0 0.0
2018-Feb-11 13:30N 28°09' W 015°25'0 0.0
2018-Feb-11 12:53N 28°09' W 015°25'0 0.0
2018-Feb-11 12:24N 28°09' W 015°25'0 0.0
2018-Feb-11 11:59N 28°09' W 015°25'0 0.0
2018-Feb-11 11:24N 28°09' W 015°25'0 0.0
2018-Feb-11 10:59N 28°09' W 015°25'0 0.0
2018-Feb-11 10:29N 28°09' W 015°25'0 0.0
2018-Feb-11 09:54N 28°09' W 015°25'0 0.0
2018-Feb-11 09:29N 28°09' W 015°25'0 0.0
2018-Feb-11 08:59N 28°09' W 015°25'0 0.0
2018-Feb-11 08:30N 28°09' W 015°25'0 0.0
2018-Feb-11 07:59N 28°09' W 015°25'0 0.0
2018-Feb-11 07:30N 28°09' W 015°25'0 0.0
2018-Feb-11 06:47N 28°09' W 015°25'0 0.0
2018-Feb-11 06:30N 28°09' W 015°25'0 0.0
2018-Feb-11 06:00N 28°09' W 015°25'0 0.0
2018-Feb-11 05:25N 28°09' W 015°25'0 0.0
2018-Feb-11 05:00N 28°09' W 015°25'0 0.0
2018-Feb-11 04:30N 28°09' W 015°25'0 0.0
2018-Feb-11 04:00N 28°09' W 015°25'0 0.0
2018-Feb-11 03:18N 28°09' W 015°25'0 0.0
2018-Feb-11 03:00N 28°09' W 015°25'0 0.0
2018-Feb-11 02:30N 28°09' W 015°25'0 0.0
2018-Feb-11 02:00N 28°09' W 015°25'0 0.0
2018-Feb-11 01:25N 28°09' W 015°25'0 0.0
2018-Feb-11 01:00N 28°09' W 015°25'0 0.0
2018-Feb-11 00:30N 28°09' W 015°25'0 0.0
2018-Feb-10 23:55N 28°09' W 015°25'0 0.0
2018-Feb-10 23:30N 28°09' W 015°25'0 0.0
2018-Feb-10 22:43N 28°09' W 015°25'0 0.0
2018-Feb-10 22:30N 28°09' W 015°25'0 0.0
2018-Feb-10 21:43N 28°09' W 015°25'0 0.0
2018-Feb-10 21:19N 28°09' W 015°25'0 0.0
2018-Feb-10 20:49N 28°09' W 015°25'0 0.0
2018-Feb-10 20:24N 28°09' W 015°25'0 0.0
2018-Feb-10 19:54N 28°09' W 015°25'0 0.0
2018-Feb-10 19:24N 28°09' W 015°25'0 0.0
2018-Feb-10 18:54N 28°09' W 015°25'0 0.0
2018-Feb-10 18:12N 28°09' W 015°25'0 0.0
2018-Feb-10 17:49N 28°09' W 015°25'0 0.0
2018-Feb-10 17:24N 28°09' W 015°25'0 0.0
2018-Feb-10 16:49N 28°09' W 015°25'0 0.0
2018-Feb-10 16:24N 28°09' W 015°25'0 0.0
2018-Feb-10 16:00N 28°09' W 015°25'0 0.0
2018-Feb-10 15:25N 28°09' W 015°25'0 0.0
2018-Feb-10 14:55N 28°09' W 015°25'0 0.0
2018-Feb-10 14:30N 28°09' W 015°25'0 0.0
2018-Feb-10 14:00N 28°09' W 015°25'0 0.0
2018-Feb-10 13:25N 28°09' W 015°25'0 0.0
2018-Feb-10 13:00N 28°09' W 015°25'0 0.0
2018-Feb-10 12:30N 28°09' W 015°25'0 0.0
2018-Feb-10 12:00N 28°09' W 015°25'0 0.0
2018-Feb-10 11:30N 28°09' W 015°25'0 0.0
2018-Feb-10 11:00N 28°09' W 015°25'0 0.0
2018-Feb-10 10:18N 28°09' W 015°25'0 0.0
2018-Feb-10 09:48N 28°09' W 015°25'0 0.0
2018-Feb-10 09:30N 28°09' W 015°25'0 0.0
2018-Feb-10 08:55N 28°09' W 015°25'0 0.0
2018-Feb-10 08:24N 28°09' W 015°25'0 0.0
2018-Feb-10 07:54N 28°09' W 015°25'0 0.0
2018-Feb-10 07:13N 28°09' W 015°25'0 0.0
2018-Feb-10 06:54N 28°09' W 015°25'0 0.0
2018-Feb-10 06:24N 28°09' W 015°25'0 0.0
2018-Feb-10 05:54N 28°09' W 015°25'0 0.0
2018-Feb-10 05:24N 28°09' W 015°25'0 0.0
2018-Feb-10 04:54N 28°09' W 015°25'0 0.0
2018-Feb-10 04:30N 28°09' W 015°25'0 0.0
2018-Feb-10 03:54N 28°09' W 015°25'0 0.0
2018-Feb-10 03:24N 28°09' W 015°25'0 0.0
2018-Feb-10 02:55N 28°09' W 015°25'0 0.0
2018-Feb-10 02:13N 28°09' W 015°25'0 0.0
2018-Feb-10 02:00N 28°09' W 015°25'0 0.0
2018-Feb-10 01:30N 28°09' W 015°25'0 0.0
2018-Feb-10 00:49N 28°09' W 015°25'0 0.0
2018-Feb-10 00:30N 28°09' W 015°25'0 0.0
2018-Feb-10 00:00N 28°09' W 015°25'0 0.0
2018-Feb-09 23:30N 28°09' W 015°25'0 0.0
2018-Feb-09 23:00N 28°09' W 015°25'0 0.0
2018-Feb-09 22:43N 28°09' W 015°25'0 0.0
2018-Feb-08 01:25N 28°09' W 015°25'0 0.0
2018-Feb-08 00:51N 28°09' W 015°25'0 0.0
2018-Feb-08 00:25N 28°09' W 015°25'0 0.0
2018-Feb-07 23:57N 28°09' W 015°25'0 0.0
2018-Feb-07 23:25N 28°09' W 015°25'0 0.0
2018-Feb-07 22:51N 28°09' W 015°25'0 0.0
2018-Feb-07 22:26N 28°09' W 015°25'0 0.0
2018-Feb-07 21:56N 28°09' W 015°25'0 0.0
2018-Feb-07 21:26N 28°09' W 015°25'0 0.0
2018-Feb-07 09:26N 28°09' W 015°25'0 0.0
2018-Feb-07 08:56N 28°09' W 015°25'0 0.0
2018-Feb-07 08:26N 28°09' W 015°25'0 0.0
2018-Feb-07 07:51N 28°09' W 015°25'0 0.0
2018-Feb-07 07:26N 28°09' W 015°25'0 0.0
2018-Feb-07 06:57N 28°09' W 015°25'0 0.0
2018-Feb-07 06:26N 28°09' W 015°25'0 0.0
2018-Feb-07 05:57N 28°09' W 015°25'0 0.0
2018-Feb-07 05:26N 28°09' W 015°25'0 0.0
2018-Feb-07 04:56N 28°09' W 015°25'0 0.0
2018-Feb-07 04:27N 28°09' W 015°25'0 0.0
2018-Feb-07 03:57N 28°09' W 015°25'0 0.0
2018-Feb-07 03:15N 28°09' W 015°25'0 0.0
2018-Feb-07 02:57N 28°09' W 015°25'0 0.0
2018-Feb-07 02:27N 28°09' W 015°25'0 0.0
2018-Feb-07 01:50N 28°09' W 015°25'0 0.0
2018-Feb-07 01:27N 28°09' W 015°25'0 0.0
2018-Feb-07 00:57N 28°09' W 015°25'0 0.0
2018-Feb-07 00:26N 28°09' W 015°25'0 0.0
2018-Feb-06 23:56N 28°09' W 015°25'0 0.0
2018-Feb-06 23:03N 28°09' W 015°25'0 0.0
2018-Feb-06 22:56N 28°09' W 015°25'0 0.0
2018-Feb-06 22:20N 28°09' W 015°25'0 0.0
2018-Feb-06 21:56N 28°09' W 015°25'0 0.0
2018-Feb-06 21:26N 28°09' W 015°25'0 0.0
2018-Feb-06 20:56N 28°09' W 015°25'0 0.0
2018-Feb-06 20:26N 28°09' W 015°25'0 0.0
2018-Feb-06 19:56N 28°09' W 015°25'0 0.0
2018-Feb-06 19:26N 28°09' W 015°25'0 0.0
2018-Feb-06 18:56N 28°09' W 015°25'0 0.0
2018-Feb-06 18:21N 28°09' W 015°25'0 0.0
2018-Feb-06 17:56N 28°09' W 015°25'0 0.0
2018-Feb-06 17:21N 28°09' W 015°25'0 0.0
2018-Feb-06 16:57N 28°09' W 015°25'0 0.0
2018-Feb-06 16:27N 28°09' W 015°25'0 0.0
2018-Feb-06 15:57N 28°09' W 015°25'0 0.0
2018-Feb-06 15:26N 28°09' W 015°25'0 0.0
2018-Feb-06 14:26N 28°09' W 015°25'0 0.0
2018-Feb-06 13:50N 28°09' W 015°25'0 0.0
2018-Feb-06 13:27N 28°09' W 015°25'0 0.0
2018-Feb-06 12:57N 28°09' W 015°25'0 0.0
2018-Feb-06 12:27N 28°09' W 015°25'0 0.0
2018-Feb-06 11:50N 28°09' W 015°25'0 0.0
2018-Feb-06 11:15N 28°09' W 015°25'0 0.0
2018-Feb-06 10:57N 28°09' W 015°25'0 0.0
2018-Feb-06 10:26N 28°09' W 015°25'0 0.0
2018-Feb-06 09:56N 28°09' W 015°25'0 0.0
2018-Feb-06 09:26N 28°09' W 015°25'0 0.0
2018-Feb-06 08:56N 28°09' W 015°25'0 0.0
2018-Feb-06 08:20N 28°09' W 015°25'0 0.0
2018-Feb-06 07:56N 28°09' W 015°25'0 0.0
2018-Feb-06 07:08N 28°09' W 015°25'0 0.0
2018-Feb-06 06:56N 28°09' W 015°25'0 0.0
2018-Feb-06 06:21N 28°09' W 015°25'0 0.0
2018-Feb-06 05:56N 28°09' W 015°25'0 0.0
2018-Feb-06 05:26N 28°09' W 015°25'0 0.0
2018-Feb-06 04:56N 28°09' W 015°25'0 0.0
2018-Feb-06 04:26N 28°09' W 015°25'0 0.0
2018-Feb-06 03:56N 28°09' W 015°25'0 0.0
2018-Feb-06 03:27N 28°09' W 015°25'0 0.0
2018-Feb-06 02:57N 28°09' W 015°25'0 0.0
2018-Feb-06 02:21N 28°09' W 015°25'0 0.0
2018-Feb-06 01:57N 28°09' W 015°25'0 0.0
2018-Feb-06 01:27N 28°09' W 015°25'0 0.0
2018-Feb-06 00:51N 28°09' W 015°25'0 0.0
2018-Feb-06 00:27N 28°09' W 015°25'0 0.0
2018-Feb-05 23:57N 28°09' W 015°25'0 0.0
2018-Feb-05 23:27N 28°09' W 015°25'0 0.0
2018-Feb-05 22:57N 28°09' W 015°25'0 0.0
2018-Feb-05 22:27N 28°09' W 015°25'0 0.0
2018-Feb-05 21:45N 28°09' W 015°25'0 0.0
2018-Feb-05 21:21N 28°09' W 015°25'0 0.0
2018-Feb-05 20:57N 28°09' W 015°25'0 0.0
2018-Feb-05 20:27N 28°09' W 015°25'0 0.0
2018-Feb-05 19:57N 28°09' W 015°25'0 0.0
2018-Feb-05 19:27N 28°09' W 015°25'0 0.0
2018-Feb-05 18:51N 28°09' W 015°25'0 0.0
2018-Feb-05 18:27N 28°09' W 015°25'0 0.0
2018-Feb-05 17:57N 28°09' W 015°25'0 0.0
2018-Feb-05 17:27N 28°09' W 015°25'0 0.0
2018-Feb-05 16:57N 28°09' W 015°25'0 0.0
2018-Feb-05 16:10N 28°09' W 015°25'0 0.0
2018-Feb-05 15:57N 28°09' W 015°25'0 0.0
2018-Feb-05 15:28N 28°09' W 015°25'0 0.0
2018-Feb-05 14:58N 28°09' W 015°25'0 0.0
2018-Feb-05 14:22N 28°09' W 015°25'0 0.0
2018-Feb-05 13:57N 28°09' W 015°25'0 0.0
2018-Feb-05 13:28N 28°09' W 015°25'0 0.0
2018-Feb-05 12:58N 28°09' W 015°25'0 0.0
2018-Feb-05 12:28N 28°09' W 015°25'0 0.0
2018-Feb-05 11:58N 28°09' W 015°25'0 0.0
2018-Feb-05 11:28N 28°09' W 015°25'0 0.0
2018-Feb-05 10:58N 28°09' W 015°25'0 0.0
2018-Feb-05 10:28N 28°09' W 015°25'0 0.0
2018-Feb-05 09:58N 28°09' W 015°25'0 0.0
2018-Feb-05 09:28N 28°09' W 015°25'0 0.0
2018-Feb-05 08:58N 28°09' W 015°25'0 0.0
2018-Feb-05 08:28N 28°09' W 015°25'0 0.0
2018-Feb-05 07:58N 28°09' W 015°25'0 0.0
2018-Feb-05 07:21N 28°09' W 015°25'0 0.0
2018-Feb-05 06:52N 28°09' W 015°25'0 0.0
2018-Feb-05 06:27N 28°09' W 015°25'0 0.0
2018-Feb-05 05:27N 28°09' W 015°25'0 0.0
2018-Feb-05 04:57N 28°09' W 015°25'0 0.0
2018-Feb-05 04:27N 28°09' W 015°25'0 0.0
2018-Feb-05 03:57N 28°09' W 015°25'0 0.0
2018-Feb-05 03:27N 28°09' W 015°25'0 0.0
2018-Feb-05 02:57N 28°09' W 015°25'0 0.0
2018-Feb-05 02:27N 28°09' W 015°25'0 0.0
2018-Feb-05 01:57N 28°09' W 015°25'0 0.0
2018-Feb-05 01:27N 28°09' W 015°25'0 0.0
2018-Feb-05 00:57N 28°09' W 015°25'0 0.0
2018-Feb-05 00:29N 28°09' W 015°25'0 0.0
2018-Feb-04 23:45N 28°09' W 015°25'0 0.0
2018-Feb-04 23:29N 28°09' W 015°25'0 0.0
2018-Feb-04 22:59N 28°09' W 015°25'  
Track history (hours):
 
Tides and Currents Weather Stations Pressure Air Temp Water Temp Dewpoint Dewpoint Depression Visibility Wind Speed Wind Dir Waves Ship Positions

Lonnoy

Last reported at 2018-Feb-14 22:51 UTC. Time now 2018-Jun-25 17:48 UTC.
Position N 27°48' W 015°20'.
Warning: this ship's position is months out of date.

Length 65 m; draft 6.2 m.

Type: Fishing. MMSI: 242589300.

Date/timePositionNaut miles runAvg speedWind from/ knotsBaromVisibWave heightAir tempDewpointWater temp
2018-Feb-14 22:51N 27°48' W 015°20'513.4
2018-Feb-14 22:30N 27°52' W 015°19'612.9
2018-Feb-14 22:00N 27°59' W 015°20'612.7
2018-Feb-14 21:30N 28°05' W 015°22'4 8.8
2018-Feb-14 21:00N 28°08' W 015°25'0 0.9
2018-Feb-14 20:28N 28°09' W 015°25'0 0.0
2018-Feb-14 19:58N 28°09' W 015°25'0 0.0
2018-Feb-14 19:30N 28°09' W 015°25'0 0.0
2018-Feb-14 18:59N 28°09' W 015°25'0 0.0
2018-Feb-14 18:30N 28°09' W 015°25'0 0.0
2018-Feb-14 18:00N 28°09' W 015°25'0 0.0
2018-Feb-14 17:30N 28°09' W 015°25'1 2.4
2018-Feb-14 16:59N 28°07' W 015°25'1 3.1
2018-Feb-14 16:30N 28°07' W 015°23'0 0.7
2018-Feb-14 16:00N 28°08' W 015°23'0 0.9
2018-Feb-14 15:30N 28°07' W 015°22'3 5.7
2018-Feb-14 15:00N 28°08' W 015°25'0 0.1
2018-Feb-14 14:30N 28°09' W 015°25'0 0.0
2018-Feb-14 13:59N 28°09' W 015°25'0 0.0
2018-Feb-14 13:30N 28°09' W 015°25'0 0.0
2018-Feb-14 13:00N 28°09' W 015°25'0 0.0
2018-Feb-14 12:30N 28°09' W 015°25'0 0.0
2018-Feb-14 12:00N 28°09' W 015°25'0 0.0
2018-Feb-14 11:31N 28°09' W 015°25'0 0.0
2018-Feb-14 11:01N 28°09' W 015°25'0 0.0
2018-Feb-14 10:30N 28°09' W 015°25'0 0.0
2018-Feb-14 09:59N 28°09' W 015°25'0 0.0
2018-Feb-14 09:30N 28°09' W 015°25'0 0.0
2018-Feb-14 09:01N 28°09' W 015°25'0 0.0
2018-Feb-14 08:31N 28°09' W 015°25'0 0.0
2018-Feb-14 08:01N 28°09' W 015°25'0 0.0
2018-Feb-14 07:31N 28°09' W 015°25'0 0.0
2018-Feb-14 07:00N 28°09' W 015°25'0 0.0
2018-Feb-14 06:31N 28°09' W 015°25'0 0.0
2018-Feb-14 06:01N 28°09' W 015°25'0 0.0
2018-Feb-14 05:30N 28°09' W 015°25'0 0.0
2018-Feb-14 05:01N 28°09' W 015°25'0 0.0
2018-Feb-14 04:30N 28°09' W 015°25'0 0.0
2018-Feb-14 04:00N 28°09' W 015°25'0 0.0
2018-Feb-14 03:29N 28°09' W 015°25'0 0.0
2018-Feb-14 02:58N 28°09' W 015°25'0 0.0
2018-Feb-14 02:30N 28°09' W 015°25'0 0.0
2018-Feb-14 02:00N 28°09' W 015°25'0 0.0
2018-Feb-14 01:28N 28°09' W 015°25'0 0.0
2018-Feb-14 01:00N 28°09' W 015°25'0 0.0
2018-Feb-14 00:30N 28°09' W 015°25'0 0.0
2018-Feb-14 00:00N 28°09' W 015°25'0 0.0
2018-Feb-13 23:30N 28°09' W 015°25'0 0.0
2018-Feb-13 23:00N 28°09' W 015°25'0 0.0
2018-Feb-13 22:30N 28°09' W 015°25'0 0.0
2018-Feb-13 21:59N 28°09' W 015°25'0 0.0
2018-Feb-13 21:30N 28°09' W 015°25'0 0.0
2018-Feb-13 21:00N 28°09' W 015°25'0 0.0
2018-Feb-13 20:29N 28°09' W 015°25'0 0.0
2018-Feb-13 20:00N 28°09' W 015°25'0 0.0
2018-Feb-13 19:31N 28°09' W 015°25'0 0.0
2018-Feb-13 19:01N 28°09' W 015°25'0 0.0
2018-Feb-13 18:27N 28°09' W 015°25'0 0.0
2018-Feb-13 18:01N 28°09' W 015°25'0 0.0
2018-Feb-13 17:30N 28°09' W 015°25'0 0.0
2018-Feb-13 17:00N 28°09' W 015°25'0 0.0
2018-Feb-13 16:29N 28°09' W 015°25'2 3.4
2018-Feb-13 16:01N 28°07' W 015°24'510.0
2018-Feb-13 15:30N 28°10' W 015°20'1 2.9
2018-Feb-13 15:01N 28°11' W 015°18'4 7.3
2018-Feb-13 14:30N 28°07' W 015°17'2 3.1
2018-Feb-13 14:00N 28°05' W 015°17'611.4
2018-Feb-13 13:30N 28°11' W 015°16'3 5.6
2018-Feb-13 13:00N 28°09' W 015°15'1 2.6
2018-Feb-13 12:30N 28°07' W 015°15'4 7.9
2018-Feb-13 12:00N 28°07' W 015°20'3 6.2
2018-Feb-13 11:30N 28°07' W 015°23'3 5.3
2018-Feb-13 11:00N 28°08' W 015°25'0 0.1
2018-Feb-13 10:29N 28°09' W 015°25'0 0.0
2018-Feb-13 09:59N 28°09' W 015°25'0 0.0
2018-Feb-13 09:25N 28°09' W 015°25'0 0.0
2018-Feb-13 08:59N 28°09' W 015°25'0 0.0
2018-Feb-13 08:29N 28°09' W 015°25'0 0.0
2018-Feb-13 07:59N 28°09' W 015°25'0 0.0
2018-Feb-13 07:29N 28°09' W 015°25'0 0.0
2018-Feb-13 06:59N 28°09' W 015°25'0 0.0
2018-Feb-13 06:29N 28°09' W 015°25'0 0.0
2018-Feb-13 05:59N 28°09' W 015°25'0 0.0
2018-Feb-13 05:29N 28°09' W 015°25'0 0.0
2018-Feb-13 04:59N 28°09' W 015°25'0 0.0
2018-Feb-13 04:29N 28°09' W 015°25'0 0.0
2018-Feb-13 03:59N 28°09' W 015°25'0 0.0
2018-Feb-13 03:29N 28°09' W 015°25'0 0.0
2018-Feb-13 02:59N 28°09' W 015°25'0 0.0
2018-Feb-13 02:29N 28°09' W 015°25'0 0.0
2018-Feb-13 01:59N 28°09' W 015°25'0 0.0
2018-Feb-13 01:29N 28°09' W 015°25'0 0.0
2018-Feb-13 00:59N 28°09' W 015°25'0 0.0
2018-Feb-13 00:29N 28°09' W 015°25'0 0.0
2018-Feb-12 23:59N 28°09' W 015°25'0 0.0
2018-Feb-12 23:29N 28°09' W 015°25'0 0.0
2018-Feb-12 22:59N 28°09' W 015°25'0 0.0
2018-Feb-12 22:29N 28°09' W 015°25'0 0.0
2018-Feb-12 21:59N 28°09' W 015°25'0 0.0
2018-Feb-12 21:29N 28°09' W 015°25'0 0.0
2018-Feb-12 20:59N 28°09' W 015°25'0 0.0
2018-Feb-12 20:29N 28°09' W 015°25'0 0.0
2018-Feb-12 19:59N 28°09' W 015°25'0 0.0
2018-Feb-12 19:29N 28°09' W 015°25'0 0.0
2018-Feb-12 18:59N 28°09' W 015°25'0 0.0
2018-Feb-12 18:29N 28°09' W 015°25'0 0.0
2018-Feb-12 17:59N 28°09' W 015°25'0 0.0
2018-Feb-12 17:30N 28°09' W 015°25'0 0.0
2018-Feb-12 17:00N 28°09' W 015°25'0 0.0
2018-Feb-12 16:30N 28°09' W 015°25'0 0.0
2018-Feb-12 16:00N 28°09' W 015°25'0 0.0
2018-Feb-12 15:14N 28°09' W 015°25'0 0.0
2018-Feb-12 15:00N 28°09' W 015°25'0 0.0
2018-Feb-12 14:30N 28°09' W 015°25'0 0.0
2018-Feb-12 13:56N 28°09' W 015°25'0 0.0
2018-Feb-12 13:30N 28°09' W 015°25'0 0.0
2018-Feb-12 12:56N 28°09' W 015°25'0 0.0
2018-Feb-12 12:26N 28°09' W 015°25'0 0.0
2018-Feb-12 11:54N 28°09' W 015°25'0 0.0
2018-Feb-12 11:26N 28°09' W 015°25'0 0.0
2018-Feb-12 11:00N 28°09' W 015°25'0 0.0
2018-Feb-12 10:30N 28°09' W 015°25'0 0.0
2018-Feb-12 10:00N 28°09' W 015°25'0 0.0
2018-Feb-12 09:30N 28°09' W 015°25'0 0.0
2018-Feb-12 09:00N 28°09' W 015°25'0 0.0
2018-Feb-12 07:56N 28°09' W 015°25'0 0.0
2018-Feb-12 07:30N 28°09' W 015°25'0 0.0
2018-Feb-12 07:00N 28°09' W 015°25'0 0.0
2018-Feb-12 06:15N 28°09' W 015°25'0 0.0
2018-Feb-12 06:00N 28°09' W 015°25'0 0.0
2018-Feb-12 05:30N 28°09' W 015°25'0 0.0
2018-Feb-12 04:51N 28°09' W 015°25'0 0.0
2018-Feb-12 04:30N 28°09' W 015°25'0 0.0
2018-Feb-12 03:54N 28°09' W 015°25'0 0.0
2018-Feb-12 03:21N 28°09' W 015°25'0 0.0
2018-Feb-12 03:00N 28°09' W 015°25'0 0.0
2018-Feb-12 02:21N 28°09' W 015°25'0 0.0
2018-Feb-12 01:36N 28°09' W 015°25'0 0.0
2018-Feb-12 01:24N 28°09' W 015°25'0 0.0
2018-Feb-12 00:54N 28°09' W 015°25'0 0.0
2018-Feb-12 00:24N 28°09' W 015°25'0 0.0
2018-Feb-11 23:54N 28°09' W 015°25'0 0.0
2018-Feb-11 23:21N 28°09' W 015°25'0 0.0
2018-Feb-11 22:57N 28°09' W 015°25'0 0.0
2018-Feb-11 22:27N 28°09' W 015°25'0 0.0
2018-Feb-11 22:00N 28°09' W 015°25'0 0.0
2018-Feb-11 21:28N 28°09' W 015°25'0 0.0
2018-Feb-11 20:58N 28°09' W 015°25'0 0.0
2018-Feb-11 20:30N 28°09' W 015°25'0 0.0
2018-Feb-11 20:00N 28°09' W 015°25'0 0.0
2018-Feb-11 19:30N 28°09' W 015°25'0 0.0
2018-Feb-11 19:00N 28°09' W 015°25'0 0.0
2018-Feb-11 18:18N 28°09' W 015°25'0 0.0
2018-Feb-11 18:00N 28°09' W 015°25'0 0.0
2018-Feb-11 17:30N 28°09' W 015°25'0 0.0
2018-Feb-11 17:00N 28°09' W 015°25'0 0.0
2018-Feb-11 16:30N 28°09' W 015°25'0 0.0
2018-Feb-11 16:00N 28°09' W 015°25'0 0.0
2018-Feb-11 15:30N 28°09' W 015°25'0 0.0
2018-Feb-11 15:00N 28°09' W 015°25'0 0.0
2018-Feb-11 14:30N 28°09' W 015°25'0 0.0
2018-Feb-11 14:00N 28°09' W 015°25'0 0.0
2018-Feb-11 13:30N 28°09' W 015°25'0 0.0
2018-Feb-11 12:53N 28°09' W 015°25'0 0.0
2018-Feb-11 12:24N 28°09' W 015°25'0 0.0
2018-Feb-11 11:59N 28°09' W 015°25'0 0.0
2018-Feb-11 11:24N 28°09' W 015°25'0 0.0
2018-Feb-11 10:59N 28°09' W 015°25'0 0.0
2018-Feb-11 10:29N 28°09' W 015°25'0 0.0
2018-Feb-11 09:54N 28°09' W 015°25'0 0.0
2018-Feb-11 09:29N 28°09' W 015°25'0 0.0
2018-Feb-11 08:59N 28°09' W 015°25'0 0.0
2018-Feb-11 08:30N 28°09' W 015°25'0 0.0
2018-Feb-11 07:59N 28°09' W 015°25'0 0.0
2018-Feb-11 07:30N 28°09' W 015°25'0 0.0
2018-Feb-11 06:47N 28°09' W 015°25'0 0.0
2018-Feb-11 06:30N 28°09' W 015°25'0 0.0
2018-Feb-11 06:00N 28°09' W 015°25'0 0.0
2018-Feb-11 05:25N 28°09' W 015°25'0 0.0
2018-Feb-11 05:00N 28°09' W 015°25'0 0.0
2018-Feb-11 04:30N 28°09' W 015°25'0 0.0
2018-Feb-11 04:00N 28°09' W 015°25'0 0.0
2018-Feb-11 03:18N 28°09' W 015°25'0 0.0
2018-Feb-11 03:00N 28°09' W 015°25'0 0.0
2018-Feb-11 02:30N 28°09' W 015°25'0 0.0
2018-Feb-11 02:00N 28°09' W 015°25'0 0.0
2018-Feb-11 01:25N 28°09' W 015°25'0 0.0
2018-Feb-11 01:00N 28°09' W 015°25'0 0.0
2018-Feb-11 00:30N 28°09' W 015°25'0 0.0
2018-Feb-10 23:55N 28°09' W 015°25'0 0.0
2018-Feb-10 23:30N 28°09' W 015°25'0 0.0
2018-Feb-10 22:43N 28°09' W 015°25'0 0.0
2018-Feb-10 22:30N 28°09' W 015°25'0 0.0
2018-Feb-10 21:43N 28°09' W 015°25'0 0.0
2018-Feb-10 21:19N 28°09' W 015°25'0 0.0
2018-Feb-10 20:49N 28°09' W 015°25'0 0.0
2018-Feb-10 20:24N 28°09' W 015°25'0 0.0
2018-Feb-10 19:54N 28°09' W 015°25'0 0.0
2018-Feb-10 19:24N 28°09' W 015°25'0 0.0
2018-Feb-10 18:54N 28°09' W 015°25'0 0.0
2018-Feb-10 18:12N 28°09' W 015°25'0 0.0
2018-Feb-10 17:49N 28°09' W 015°25'0 0.0
2018-Feb-10 17:24N 28°09' W 015°25'0 0.0
2018-Feb-10 16:49N 28°09' W 015°25'0 0.0
2018-Feb-10 16:24N 28°09' W 015°25'0 0.0
2018-Feb-10 16:00N 28°09' W 015°25'0 0.0
2018-Feb-10 15:25N 28°09' W 015°25'0 0.0
2018-Feb-10 14:55N 28°09' W 015°25'0 0.0
2018-Feb-10 14:30N 28°09' W 015°25'0 0.0
2018-Feb-10 14:00N 28°09' W 015°25'0 0.0
2018-Feb-10 13:25N 28°09' W 015°25'0 0.0
2018-Feb-10 13:00N 28°09' W 015°25'0 0.0
2018-Feb-10 12:30N 28°09' W 015°25'0 0.0
2018-Feb-10 12:00N 28°09' W 015°25'0 0.0
2018-Feb-10 11:30N 28°09' W 015°25'0 0.0
2018-Feb-10 11:00N 28°09' W 015°25'0 0.0
2018-Feb-10 10:18N 28°09' W 015°25'0 0.0
2018-Feb-10 09:48N 28°09' W 015°25'0 0.0
2018-Feb-10 09:30N 28°09' W 015°25'0 0.0
2018-Feb-10 08:55N 28°09' W 015°25'0 0.0
2018-Feb-10 08:24N 28°09' W 015°25'0 0.0
2018-Feb-10 07:54N 28°09' W 015°25'0 0.0
2018-Feb-10 07:13N 28°09' W 015°25'0 0.0
2018-Feb-10 06:54N 28°09' W 015°25'0 0.0
2018-Feb-10 06:24N 28°09' W 015°25'0 0.0
2018-Feb-10 05:54N 28°09' W 015°25'0 0.0
2018-Feb-10 05:24N 28°09' W 015°25'0 0.0
2018-Feb-10 04:54N 28°09' W 015°25'0 0.0
2018-Feb-10 04:30N 28°09' W 015°25'0 0.0
2018-Feb-10 03:54N 28°09' W 015°25'0 0.0
2018-Feb-10 03:24N 28°09' W 015°25'0 0.0
2018-Feb-10 02:55N 28°09' W 015°25'0 0.0
2018-Feb-10 02:13N 28°09' W 015°25'0 0.0
2018-Feb-10 02:00N 28°09' W 015°25'0 0.0
2018-Feb-10 01:30N 28°09' W 015°25'0 0.0
2018-Feb-10 00:49N 28°09' W 015°25'0 0.0
2018-Feb-10 00:30N 28°09' W 015°25'0 0.0
2018-Feb-10 00:00N 28°09' W 015°25'0 0.0
2018-Feb-09 23:30N 28°09' W 015°25'0 0.0
2018-Feb-09 23:00N 28°09' W 015°25'0 0.0
2018-Feb-09 22:43N 28°09' W 015°25'0 0.0
2018-Feb-08 01:25N 28°09' W 015°25'0 0.0
2018-Feb-08 00:51N 28°09' W 015°25'0 0.0
2018-Feb-08 00:25N 28°09' W 015°25'0 0.0
2018-Feb-07 23:57N 28°09' W 015°25'0 0.0
2018-Feb-07 23:25N 28°09' W 015°25'0 0.0
2018-Feb-07 22:51N 28°09' W 015°25'0 0.0
2018-Feb-07 22:26N 28°09' W 015°25'0 0.0
2018-Feb-07 21:56N 28°09' W 015°25'0 0.0
2018-Feb-07 21:26N 28°09' W 015°25'0 0.0
2018-Feb-07 09:26N 28°09' W 015°25'0 0.0
2018-Feb-07 08:56N 28°09' W 015°25'0 0.0
2018-Feb-07 08:26N 28°09' W 015°25'0 0.0
2018-Feb-07 07:51N 28°09' W 015°25'0 0.0
2018-Feb-07 07:26N 28°09' W 015°25'0 0.0
2018-Feb-07 06:57N 28°09' W 015°25'0 0.0
2018-Feb-07 06:26N 28°09' W 015°25'0 0.0
2018-Feb-07 05:57N 28°09' W 015°25'0 0.0
2018-Feb-07 05:26N 28°09' W 015°25'0 0.0
2018-Feb-07 04:56N 28°09' W 015°25'0 0.0
2018-Feb-07 04:27N 28°09' W 015°25'0 0.0
2018-Feb-07 03:57N 28°09' W 015°25'0 0.0
2018-Feb-07 03:15N 28°09' W 015°25'0 0.0
2018-Feb-07 02:57N 28°09' W 015°25'0 0.0
2018-Feb-07 02:27N 28°09' W 015°25'0 0.0
2018-Feb-07 01:50N 28°09' W 015°25'0 0.0
2018-Feb-07 01:27N 28°09' W 015°25'0 0.0
2018-Feb-07 00:57N 28°09' W 015°25'0 0.0
2018-Feb-07 00:26N 28°09' W 015°25'0 0.0
2018-Feb-06 23:56N 28°09' W 015°25'0 0.0
2018-Feb-06 23:03N 28°09' W 015°25'0 0.0
2018-Feb-06 22:56N 28°09' W 015°25'0 0.0
2018-Feb-06 22:20N 28°09' W 015°25'0 0.0
2018-Feb-06 21:56N 28°09' W 015°25'0 0.0
2018-Feb-06 21:26N 28°09' W 015°25'0 0.0
2018-Feb-06 20:56N 28°09' W 015°25'0 0.0
2018-Feb-06 20:26N 28°09' W 015°25'0 0.0
2018-Feb-06 19:56N 28°09' W 015°25'0 0.0
2018-Feb-06 19:26N 28°09' W 015°25'0 0.0
2018-Feb-06 18:56N 28°09' W 015°25'0 0.0
2018-Feb-06 18:21N 28°09' W 015°25'0 0.0
2018-Feb-06 17:56N 28°09' W 015°25'0 0.0
2018-Feb-06 17:21N 28°09' W 015°25'0 0.0
2018-Feb-06 16:57N 28°09' W 015°25'0 0.0
2018-Feb-06 16:27N 28°09' W 015°25'0 0.0
2018-Feb-06 15:57N 28°09' W 015°25'0 0.0
2018-Feb-06 15:26N 28°09' W 015°25'0 0.0
2018-Feb-06 14:26N 28°09' W 015°25'0 0.0
2018-Feb-06 13:50N 28°09' W 015°25'0 0.0
2018-Feb-06 13:27N 28°09' W 015°25'0 0.0
2018-Feb-06 12:57N 28°09' W 015°25'0 0.0
2018-Feb-06 12:27N 28°09' W 015°25'0 0.0
2018-Feb-06 11:50N 28°09' W 015°25'0 0.0
2018-Feb-06 11:15N 28°09' W 015°25'0 0.0
2018-Feb-06 10:57N 28°09' W 015°25'0 0.0
2018-Feb-06 10:26N 28°09' W 015°25'0 0.0
2018-Feb-06 09:56N 28°09' W 015°25'0 0.0
2018-Feb-06 09:26N 28°09' W 015°25'0 0.0
2018-Feb-06 08:56N 28°09' W 015°25'0 0.0
2018-Feb-06 08:20N 28°09' W 015°25'0 0.0
2018-Feb-06 07:56N 28°09' W 015°25'0 0.0
2018-Feb-06 07:08N 28°09' W 015°25'0 0.0
2018-Feb-06 06:56N 28°09' W 015°25'0 0.0
2018-Feb-06 06:21N 28°09' W 015°25'0 0.0
2018-Feb-06 05:56N 28°09' W 015°25'0 0.0
2018-Feb-06 05:26N 28°09' W 015°25'0 0.0
2018-Feb-06 04:56N 28°09' W 015°25'0 0.0
2018-Feb-06 04:26N 28°09' W 015°25'0 0.0
2018-Feb-06 03:56N 28°09' W 015°25'0 0.0
2018-Feb-06 03:27N 28°09' W 015°25'0 0.0
2018-Feb-06 02:57N 28°09' W 015°25'0 0.0
2018-Feb-06 02:21N 28°09' W 015°25'0 0.0
2018-Feb-06 01:57N 28°09' W 015°25'0 0.0
2018-Feb-06 01:27N 28°09' W 015°25'0 0.0
2018-Feb-06 00:51N 28°09' W 015°25'0 0.0
2018-Feb-06 00:27N 28°09' W 015°25'0 0.0
2018-Feb-05 23:57N 28°09' W 015°25'0 0.0
2018-Feb-05 23:27N 28°09' W 015°25'0 0.0
2018-Feb-05 22:57N 28°09' W 015°25'0 0.0
2018-Feb-05 22:27N 28°09' W 015°25'0 0.0
2018-Feb-05 21:45N 28°09' W 015°25'0 0.0
2018-Feb-05 21:21N 28°09' W 015°25'0 0.0
2018-Feb-05 20:57N 28°09' W 015°25'0 0.0
2018-Feb-05 20:27N 28°09' W 015°25'0 0.0
2018-Feb-05 19:57N 28°09' W 015°25'0 0.0
2018-Feb-05 19:27N 28°09' W 015°25'0 0.0
2018-Feb-05 18:51N 28°09' W 015°25'0 0.0
2018-Feb-05 18:27N 28°09' W 015°25'0 0.0
2018-Feb-05 17:57N 28°09' W 015°25'0 0.0
2018-Feb-05 17:27N 28°09' W 015°25'0 0.0
2018-Feb-05 16:57N 28°09' W 015°25'0 0.0
2018-Feb-05 16:10N 28°09' W 015°25'0 0.0
2018-Feb-05 15:57N 28°09' W 015°25'0 0.0
2018-Feb-05 15:28N 28°09' W 015°25'0 0.0
2018-Feb-05 14:58N 28°09' W 015°25'0 0.0
2018-Feb-05 14:22N 28°09' W 015°25'0 0.0
2018-Feb-05 13:57N 28°09' W 015°25'0 0.0
2018-Feb-05 13:28N 28°09' W 015°25'0 0.0
2018-Feb-05 12:58N 28°09' W 015°25'0 0.0
2018-Feb-05 12:28N 28°09' W 015°25'0 0.0
2018-Feb-05 11:58N 28°09' W 015°25'0 0.0
2018-Feb-05 11:28N 28°09' W 015°25'0 0.0
2018-Feb-05 10:58N 28°09' W 015°25'0 0.0
2018-Feb-05 10:28N 28°09' W 015°25'0 0.0
2018-Feb-05 09:58N 28°09' W 015°25'0 0.0
2018-Feb-05 09:28N 28°09' W 015°25'0 0.0
2018-Feb-05 08:58N 28°09' W 015°25'0 0.0
2018-Feb-05 08:28N 28°09' W 015°25'0 0.0
2018-Feb-05 07:58N 28°09' W 015°25'0 0.0
2018-Feb-05 07:21N 28°09' W 015°25'0 0.0
2018-Feb-05 06:52N 28°09' W 015°25'0 0.0
2018-Feb-05 06:27N 28°09' W 015°25'0 0.0
2018-Feb-05 05:27N 28°09' W 015°25'0 0.0
2018-Feb-05 04:57N 28°09' W 015°25'0 0.0
2018-Feb-05 04:27N 28°09' W 015°25'0 0.0
2018-Feb-05 03:57N 28°09' W 015°25'0 0.0
2018-Feb-05 03:27N 28°09' W 015°25'0 0.0
2018-Feb-05 02:57N 28°09' W 015°25'0 0.0
2018-Feb-05 02:27N 28°09' W 015°25'0 0.0
2018-Feb-05 01:57N 28°09' W 015°25'0 0.0
2018-Feb-05 01:27N 28°09' W 015°25'0 0.0
2018-Feb-05 00:57N 28°09' W 015°25'0 0.0
2018-Feb-05 00:29N 28°09' W 015°25'0 0.0
2018-Feb-04 23:45N 28°09' W 015°25'0 0.0
2018-Feb-04 23:29N 28°09' W 015°25'0 0.0
2018-Feb-04 22:59N 28°09' W 015°25'  

Dump ship's entire track history